地図

経路データ

SID SEASON NUMBER BASIN SUBBASIN NAME ISO_TIME NATURE LAT LON WMO_WIND WMO_PRES WMO_AGENCY TRACK_TYPE DIST2LAND LANDFALL IFLAG USA_AGENCY USA_ATCF_ID USA_LAT USA_LON USA_RECORD USA_STATUS USA_WIND USA_PRES USA_SSHS USA_R34_NE USA_R34_SE USA_R34_SW USA_R34_NW USA_R50_NE USA_R50_SE USA_R50_SW USA_R50_NW USA_R64_NE USA_R64_SE USA_R64_SW USA_R64_NW USA_POCI USA_ROCI USA_RMW USA_EYE TOKYO_LAT TOKYO_LON TOKYO_GRADE TOKYO_WIND TOKYO_PRES TOKYO_R50_DIR TOKYO_R50_LONG TOKYO_R50_SHORT TOKYO_R30_DIR TOKYO_R30_LONG TOKYO_R30_SHORT TOKYO_LAND CMA_LAT CMA_LON CMA_CAT CMA_WIND CMA_PRES HKO_LAT HKO_LON HKO_CAT HKO_WIND HKO_PRES NEWDELHI_LAT NEWDELHI_LON NEWDELHI_GRADE NEWDELHI_WIND NEWDELHI_PRES NEWDELHI_CI NEWDELHI_DP NEWDELHI_POCI REUNION_LAT REUNION_LON REUNION_TYPE REUNION_WIND REUNION_PRES REUNION_TNUM REUNION_CI REUNION_RMW REUNION_R34_NE REUNION_R34_SE REUNION_R34_SW REUNION_R34_NW REUNION_R50_NE REUNION_R50_SE REUNION_R50_SW REUNION_R50_NW REUNION_R64_NE REUNION_R64_SE REUNION_R64_SW REUNION_R64_NW BOM_LAT BOM_LON BOM_TYPE BOM_WIND BOM_PRES BOM_TNUM BOM_CI BOM_RMW BOM_R34_NE BOM_R34_SE BOM_R34_SW BOM_R34_NW BOM_R50_NE BOM_R50_SE BOM_R50_SW BOM_R50_NW BOM_R64_NE BOM_R64_SE BOM_R64_SW BOM_R64_NW BOM_ROCI BOM_POCI BOM_EYE BOM_POS_METHOD BOM_PRES_METHOD NADI_LAT NADI_LON NADI_CAT NADI_WIND NADI_PRES WELLINGTON_LAT WELLINGTON_LON WELLINGTON_WIND WELLINGTON_PRES DS824_LAT DS824_LON DS824_STAGE DS824_WIND DS824_PRES TD9636_LAT TD9636_LON TD9636_STAGE TD9636_WIND TD9636_PRES TD9635_LAT TD9635_LON TD9635_WIND TD9635_PRES TD9635_ROCI NEUMANN_LAT NEUMANN_LON NEUMANN_CLASS NEUMANN_WIND NEUMANN_PRES MLC_LAT MLC_LON MLC_CLASS MLC_WIND MLC_PRES USA_GUST BOM_GUST BOM_GUST_PER REUNION_GUST REUNION_GUST_PER USA_SEAHGT USA_SEARAD_NE USA_SEARAD_SE USA_SEARAD_SW USA_SEARAD_NW STORM_SPEED STORM_DIR
1990319N07197 1990 115 EP CP OWEN 1990-11-14 12:00:00 NR 6.70000 197.000 main 1578 1578 O_____________ jtwc_wp WP301990 6.70000 -163.000 15 -1 10 270
1990319N07197 1990 115 EP CP OWEN 1990-11-14 15:00:00 NR 6.70258 196.510 main 1605 1605 P_____________ WP301990 6.70258 -163.490 15 -1 10 270
1990319N07197 1990 115 EP CP OWEN 1990-11-14 18:00:00 NR 6.70000 196.000 main 1635 1635 O_____________ jtwc_wp WP301990 6.70000 -164.000 15 -1 10 269
1990319N07197 1990 115 EP CP OWEN 1990-11-14 21:00:00 NR 6.69246 195.457 main 1665 1665 P_____________ WP301990 6.69246 -164.543 15 -1 11 270
1990319N07197 1990 115 EP CP OWEN 1990-11-15 00:00:00 NR 6.70000 194.900 main 1703 1703 O_____________ jtwc_wp WP301990 6.70000 -165.100 15 -1 11 272
1990319N07197 1990 115 EP CP OWEN 1990-11-15 03:00:00 NR 6.73494 194.350 main 1742 1740 P_____________ WP301990 6.73494 -165.650 15 -1 11 275
1990319N07197 1990 115 EP CP OWEN 1990-11-15 06:00:00 NR 6.80000 193.800 main 1768 1768 O_____________ jtwc_wp WP301990 6.80000 -166.200 15 -1 11 278
1990319N07197 1990 115 EP CP OWEN 1990-11-15 09:00:00 NR 6.88491 193.257 main 1795 1795 P_____________ WP301990 6.88491 -166.743 15 -1 11 280
1990319N07197 1990 115 EP CP OWEN 1990-11-15 12:00:00 NR 7.00000 192.700 main 1830 1830 O_____________ jtwc_wp WP301990 7.00000 -167.300 15 -1 12 283
1990319N07197 1990 115 EP CP OWEN 1990-11-15 15:00:00 NR 7.14992 192.115 main 1867 1859 P_____________ WP301990 7.14992 -167.885 15 -1 12 284
1990319N07197 1990 115 EP CP OWEN 1990-11-15 18:00:00 NR 7.30000 191.500 main 1891 1891 O_____________ jtwc_wp WP301990 7.30000 -168.500 15 -1 13 281
1990319N07197 1990 115 EP CP OWEN 1990-11-15 21:00:00 NR 7.39997 190.850 main 1920 1920 P_____________ WP301990 7.39997 -169.150 15 -1 13 279
1990319N07197 1990 115 EP CP OWEN 1990-11-16 00:00:00 NR 7.50000 190.200 main 1945 1945 O_____________ jtwc_wp WP301990 7.50000 -169.800 15 -1 13 281
1990319N07197 1990 115 EP CP OWEN 1990-11-16 03:00:00 NR 7.64994 189.578 main 1972 1969 P_____________ WP301990 7.64994 -170.422 15 -1 12 284
1990319N07197 1990 115 EP CP OWEN 1990-11-16 06:00:00 NR 7.80000 189.000 main 1991 1991 O_____________ jtwc_wp WP301990 7.80000 -171.000 15 -1 11 284
1990319N07197 1990 115 EP CP OWEN 1990-11-16 09:00:00 NR 7.91493 188.470 main 2015 2015 P_____________ WP301990 7.91493 -171.530 15 -1 10 281
1990319N07197 1990 115 EP CP OWEN 1990-11-16 12:00:00 NR 8.00000 188.000 main 2040 2040 O_____________ jtwc_wp WP301990 8.00000 -172.000 15 -1 9 279
1990319N07197 1990 115 EP CP OWEN 1990-11-16 15:00:00 NR 8.04989 187.592 main 2068 2059 P_____________ WP301990 8.04989 -172.408 15 -1 8 277
1990319N07197 1990 115 EP CP OWEN 1990-11-16 18:00:00 NR 8.10000 187.200 main 2087 2087 O_____________ jtwc_wp WP301990 8.10000 -172.800 15 -1 8 280
1990319N07197 1990 115 EP CP OWEN 1990-11-16 21:00:00 NR 8.19236 186.787 main 2108 2108 P_____________ WP301990 8.19236 -173.213 15 -1 9 283
1990319N07197 1990 115 EP CP OWEN 1990-11-17 00:00:00 NR 8.30000 186.300 main 2136 2136 O_____________ jtwc_wp WP301990 8.30000 -173.700 15 -1 11 281
1990319N07197 1990 115 EP CP OWEN 1990-11-17 03:00:00 NR 8.40753 185.680 main 2173 2173 P_____________ WP301990 8.40753 -174.320 15 -1 13 279
1990319N07197 1990 115 EP CP OWEN 1990-11-17 06:00:00 NR 8.50000 185.000 main 2219 2219 O_____________ jtwc_wp WP301990 8.50000 -175.000 15 -1 13 277
1990319N07197 1990 115 EP CP OWEN 1990-11-17 09:00:00 NR 8.56489 184.350 main 2267 2267 P_____________ WP301990 8.56489 -175.650 15 -1 13 274
1990319N07197 1990 115 EP CP OWEN 1990-11-17 12:00:00 NR 8.60000 183.700 main 2316 2316 O_____________ jtwc_wp WP301990 8.60000 -176.300 15 -1 13 272
1990319N07197 1990 115 EP CP OWEN 1990-11-17 15:00:00 NR 8.59989 183.050 main 2373 2373 P_____________ WP301990 8.59989 -176.950 17 -1 13 270
1990319N07197 1990 115 EP CP OWEN 1990-11-17 18:00:00 NR 8.60000 182.400 main 2423 2423 O_____________ jtwc_wp WP301990 8.60000 -177.600 20 -1 13 272
1990319N07197 1990 115 EP CP OWEN 1990-11-17 21:00:00 NR 8.64239 181.750 main 2474 2474 P_____________ WP301990 8.64239 -178.250 20 -1 13 274
1990319N07197 1990 115 EP CP OWEN 1990-11-18 00:00:00 NR 8.70000 181.100 main 2527 2527 O_____________ jtwc_wp WP301990 8.70000 -178.900 20 -1 13 275
1990319N07197 1990 115 EP CP OWEN 1990-11-18 03:00:00 NR 8.74989 180.450 main 2588 2581 P_____________ WP301990 8.74989 -179.550 20 -1 13 274
1990319N07197 1990 115 WP MM OWEN 1990-11-18 06:00:00 NR 8.80000 179.800 main 2628 2628 O_____________ jtwc_wp WP301990 8.80000 179.800 20 -1 13 275
1990319N07197 1990 115 WP MM OWEN 1990-11-18 09:00:00 NR 8.85739 179.150 main 2660 2660 P_____________ WP301990 8.85739 179.150 20 -1 13 274
1990319N07197 1990 115 WP MM OWEN 1990-11-18 12:00:00 NR 8.90000 178.500 main 2687 2687 O_____________ jtwc_wp WP301990 8.90000 178.500 20 -1 13 272
1990319N07197 1990 115 WP MM OWEN 1990-11-18 15:00:00 NR 8.90746 177.835 main 2703 2657 P_____________ WP301990 8.90746 177.835 20 -1 13 270
1990319N07197 1990 115 WP MM OWEN 1990-11-18 18:00:00 NR 8.90000 177.200 main 2657 2620 O_____________ jtwc_wp WP301990 8.90000 177.200 20 -1 12 269
1990319N07197 1990 115 WP MM OWEN 1990-11-18 21:00:00 NR 8.89238 176.627 main 2612 2575 P_____________ WP301990 8.89238 176.627 20 -1 11 270
1990319N07197 1990 115 WP MM OWEN 1990-11-19 00:00:00 NR 8.90000 176.100 main 2575 2539 O_____________ jtwc_wp WP301990 8.90000 176.100 20 -1 10 272
1990319N07197 1990 115 WP MM OWEN 1990-11-19 03:00:00 NR 8.93487 175.600 main 2539 2512 P_____________ WP301990 8.93487 175.600 20 -1 10 276
1990319N07197 1990 115 WP MM OWEN 1990-11-19 06:00:00 NR 9.00000 175.100 main 2512 2487 O_____________ jtwc_wp WP301990 9.00000 175.100 20 -1 11 279
1990319N07197 1990 115 WP MM OWEN 1990-11-19 09:00:00 NR 9.09998 174.550 main 2487 2453 P_____________ WP301990 9.09998 174.550 20 -1 10 278
1990319N07197 1990 115 WP MM OWEN 1990-11-19 12:00:00 NR 9.14000 174.100 main 2453 2436 O__O__________ jtwc_wp WP301990 9.20000 174.000 20 -1 8.90000 174.500 TD 25 1000 9 275
1990319N07197 1990 115 WP MM OWEN 1990-11-19 15:00:00 NR 9.17416 173.673 main 2436 2410 P__P__________ WP301990 9.27993 173.485 20 -1 8.96262 174.048 TD 25 1000 8 272
1990319N07197 1990 115 WP MM OWEN 1990-11-19 18:00:00 NR 9.17143 173.257 main 2410 2375 O__O__________ jtwc_wp WP301990 9.30000 173.000 20 -1 9.00000 173.600 TD 25 1000 8 264
1990319N07197 1990 115 WP MM OWEN 1990-11-19 21:00:00 NR 9.08860 172.865 main 2375 2335 P__P__________ WP301990 9.17729 172.572 22 -1 8.99992 173.157 TD 25 1000 9 262
1990319N07197 1990 115 WP MM OWEN 1990-11-20 00:00:00 NR 9.05000 172.400 main 2344 2315 O__O__________ jtwc_wp WP301990 9.10000 172.100 25 -1 9.00000 172.700 TD 25 1000 10 274
1990319N07197 1990 115 WP MM OWEN 1990-11-20 03:00:00 NR 9.15623 171.848 main 2318 2290 P__P__________ WP301990 9.27003 171.480 25 -1 9.04243 172.215 TD 27 1000 11 277
1990319N07197 1990 115 WP MM OWEN 1990-11-20 06:00:00 TS 9.19000 171.300 1004 tokyo main 2290 2262 OOOO__________ jtwc_wp WP301990 9.50000 170.800 25 -1 9.00000 172.000 2 1004 0 0 0 8.50000 171.000 1 23 1002 9.10000 171.700 TD 30 1000 11 270
1990319N07197 1990 115 WP MM OWEN 1990-11-20 09:00:00 TS 9.16540 170.735 main 2256 2220 PPPP__________ WP301990 9.62246 170.135 30 -1 8.95018 171.262 2 1004 0 0 8.51248 170.550 1 23 1002 9.14242 171.165 TD 32 997 12 268
1990319N07197 1990 115 WP MM OWEN 1990-11-20 12:00:00 TS 9.15000 170.136 1004 tokyo main 2225 2195 OOOO__________ jtwc_wp WP301990 9.70000 169.500 35 0 9.00000 170.500 2 1004 0 0 0 8.50000 170.000 1 23 1002 9.20000 170.600 TS 35 995 12 271
1990319N07197 1990 115 WP MM OWEN 1990-11-20 15:00:00 TS 9.17934 169.486 main 2195 2176 PPPP__________ WP301990 9.75737 168.927 30 -1 9.21255 169.713 2 1003 0 0 8.46255 169.287 1 23 1002 9.28490 170.015 TS 35 995 13 277
1990319N07197 1990 115 WP MM OWEN 1990-11-20 18:00:00 TS 9.30000 168.825 1002 tokyo main 2172 2160 OOOO__________ jtwc_wp WP301990 9.80000 168.400 25 -1 9.50000 169.000 2 1002 0 0 0 8.50000 168.500 1 23 1002 9.40000 169.400 TS 35 995 13 283
1990319N07197 1990 115 WP MM OWEN 1990-11-20 21:00:00 TS 9.46934 168.191 main 2166 2157 PPPP__________ WP301990 9.84993 167.885 25 -1 9.78723 168.463 2 1000 0 0 8.69019 167.675 1 23 1002 9.55000 168.743 TS 37 995 12 286
1990319N07197 1990 115 WP MM OWEN 1990-11-21 00:00:00 TS 9.65000 167.625 35 998 tokyo main 2163 2152 OOOO__________ jtwc_wp WP301990 9.90000 167.400 25 -1 10.0000 168.000 3 35 998 0 9 60 60 0 9.00000 167.000 1 23 1002 9.70000 168.100 TS 40 995 11 288
1990319N07197 1990 115 WP MM OWEN 1990-11-21 03:00:00 TS 9.79856 167.172 main 2159 2151 PPPP__________ WP301990 9.94991 166.942 27 -1 10.0224 167.515 3 37 997 0 9 60 60 9.40716 166.697 1 26 998 9.81483 167.535 TS 42 992 9 288
1990319N07197 1990 115 WP MM OWEN 1990-11-21 06:00:00 TS 9.92500 166.750 40 996 tokyo main 2155 2144 OOOO__________ jtwc_wp WP301990 10.0000 166.500 30 -1 10.0000 167.000 3 40 996 0 9 60 60 0 9.80000 166.500 1 29 995 9.90000 167.000 TS 45 990 9 285
1990319N07197 1990 115 WP MM OWEN 1990-11-21 09:00:00 TS 10.0437 166.259 main 2144 2121 PPPP__________ WP301990 10.0574 166.058 35 0 10.1000 166.400 3 42 994 0 9 70 70 10.0600 166.130 1 33 992 9.95741 166.450 TS 47 987 10 281
1990319N07197 1990 115 WP MM OWEN 1990-11-21 12:00:00 TS 10.1250 165.750 45 992 tokyo main 2121 2097 OOOO__________ jtwc_wp WP301990 10.1000 165.600 40 0 10.2000 165.800 3 45 992 0 9 80 80 0 10.2000 165.700 2 38 990 10.0000 165.900 STS 50 985 10 276
1990319N07197 1990 115 WP MM OWEN 1990-11-21 15:00:00 TS 10.1543 165.241 main 2094 2065 PPPP__________ WP301990 10.1150 165.093 55 0 10.2149 165.277 3 50 986 0 9 90 90 10.2300 165.257 2 43 987 10.0575 165.335 STS 55 980 10 271
1990319N07197 1990 115 WP MM OWEN 1990-11-21 18:00:00 TS 10.1500 164.750 55 980 tokyo main 2065 2021 OOOO__________ jtwc_wp WP301990 10.1000 164.600 70 1 10.2000 164.800 4 55 980 0 9 100 100 0 10.2000 164.800 3 48 985 10.1000 164.800 STS 60 975 9 270
1990319N07197 1990 115 WP MM OWEN 1990-11-21 21:00:00 TS 10.1468 164.292 main 2021 1993 PPPP__________ WP301990 10.0574 164.170 80 1 10.2075 164.328 4 60 975 0 9 112 112 10.2075 164.335 3 53 982 10.1149 164.335 STS 62 972 9 268
1990319N07197 1990 115 WP MM OWEN 1990-11-22 00:00:00 TS 10.1250 163.875 65 970 tokyo main 1993 1966 OOOO__________ jtwc_wp WP301990 10.0000 163.800 90 2 10.2000 163.900 5 65 970 9 50 50 9 125 125 0 10.2000 163.900 3 58 980 10.1000 163.900 T 65 970 8 266
1990319N07197 1990 115 WP MM OWEN 1990-11-22 03:00:00 TS 10.0899 163.496 main 1966 1937 PPPP__________ WP301990 9.95741 163.493 97 3 10.1649 163.535 5 67 967 9 55 55 9 125 125 10.1649 163.535 3 63 975 10.0725 163.420 T 67 967 7 262
1990319N07197 1990 115 WP MM OWEN 1990-11-22 06:00:00 TS 10.0250 163.150 70 965 tokyo main 1937 1902 OOOO__________ jtwc_wp WP301990 9.90000 163.200 105 3 10.1000 163.200 5 70 965 9 60 60 9 125 125 0 10.1000 163.200 4 68 970 10.0000 163.000 T 70 965 7 257
1990319N07197 1990 115 WP MM OWEN 1990-11-22 09:00:00 TS 9.93312 162.804 main 1902 1873 PPPP__________ WP301990 9.81501 162.850 107 3 10.0225 162.828 5 72 962 9 70 70 9 137 137 10.0225 162.828 4 72 965 9.87241 162.713 T 75 960 7 251
1990319N07197 1990 115 WP MM OWEN 1990-11-22 12:00:00 TS 9.80000 162.500 75 960 tokyo main 1873 1842 OOOO__________ jtwc_wp WP301990 9.70000 162.500 110 3 9.90000 162.500 5 75 960 9 80 80 9 150 150 0 9.90000 162.500 4 77 960 9.70000 162.500 T 80 955 6 241
1990319N07197 1990 115 WP MM OWEN 1990-11-22 15:00:00 TS 9.62747 162.251 main 1842 1811 PPPP__________ WP301990 9.57250 162.170 112 3 9.70745 162.270 5 75 957 9 90 90 9 162 162 9.72995 162.270 4 77 960 9.49997 162.293 T 80 952 6 230
1990319N07197 1990 115 WP MM OWEN 1990-11-22 18:00:00 TS 9.42500 162.050 75 955 tokyo main 1811 1779 OOOO__________ jtwc_wp WP301990 9.40000 161.900 115 4 9.50000 162.100 5 75 955 9 100 100 9 175 175 0 9.50000 162.100 4 77 960 9.30000 162.100 T 80 950 6 221
1990319N07197 1990 115 WP MM OWEN 1990-11-22 21:00:00 TS 9.20123 161.878 main 1779 1748 PPPP__________ WP301990 9.14246 161.728 120 4 9.34997 161.950 5 77 952 9 112 112 9 175 175 9.17749 161.942 4 82 955 9.13500 161.893 T 85 945 5 217
1990319N07197 1990 115 WP MM OWEN 1990-11-23 00:00:00 TS 9.00000 161.725 80 950 tokyo main 1748 1733 OOOO__________ jtwc_wp WP301990 8.90000 161.600 125 4 9.20000 161.800 5 80 950 9 125 125 9 175 175 0 8.90000 161.800 5 87 950 9.00000 161.700 ST 90 940 5 223
1990319N07197 1990 115 WP MM OWEN 1990-11-23 03:00:00 TS 8.85937 161.561 main 1733 1710 PPPP__________ WP301990 8.76248 161.458 127 4 8.97752 161.592 5 82 945 9 125 125 9 187 187 8.80499 161.650 5 87 950 8.89248 161.543 ST 95 935 4 235
1990319N07197 1990 115 WP MM OWEN 1990-11-23 06:00:00 TS 8.77500 161.400 85 940 tokyo main 1710 1695 OOOO__________ jtwc_wp WP301990 8.70000 161.300 130 4 8.80000 161.400 5 85 940 9 125 125 9 200 200 0 8.80000 161.500 5 87 950 8.80000 161.400 SuperT 100 930 3 247
1990319N07197 1990 115 WP MM OWEN 1990-11-23 09:00:00 TS 8.73123 161.254 main 1695 1681 PPPP__________ WP301990 8.67751 161.100 130 4 8.77748 161.293 5 87 937 9 125 125 9 212 212 8.78496 161.372 5 87 947 8.68499 161.250 SuperT 97 932 3 260
1990319N07197 1990 115 WP MM OWEN 1990-11-23 12:00:00 TS 8.72500 161.100 90 935 tokyo main 1681 1668 OOOO__________ jtwc_wp WP301990 8.70000 160.900 130 4 8.80000 161.200 5 90 935 9 125 125 9 225 225 0 8.80000 161.200 5 87 945 8.60000 161.100 ST 95 935 3 270
1990319N07197 1990 115 WP MM OWEN 1990-11-23 15:00:00 TS 8.73190 160.903 main 1668 1655 PPPP__________ WP301990 8.74249 160.735 130 4 8.75000 161.057 5 90 935 9 125 125 9 225 225 8.85009 160.878 5 92 940 8.58500 160.943 ST 90 940 4 274
1990319N07197 1990 115 WP MM OWEN 1990-11-23 18:00:00 TS 8.75000 160.725 90 935 tokyo main 1664 1658 OOOO__________ jtwc_wp WP301990 8.80000 160.600 130 4 8.70000 160.900 5 90 935 9 125 125 9 225 225 0 8.90000 160.600 5 97 935 8.60000 160.800 ST 85 945 3 275
1990319N07197 1990 115 WP MM OWEN 1990-11-23 21:00:00 TS 8.75685 160.634 main 1658 1658 PPPP__________ WP301990 8.85748 160.500 127 4 8.67748 160.757 5 90 935 9 125 125 9 225 225 8.89995 160.577 5 97 935 8.59248 160.700 ST 80 950 2 278
1990319N07197 1990 115 WP MM OWEN 1990-11-24 00:00:00 TS 8.77500 160.550 90 935 tokyo main 1658 1645 OOOO__________ jtwc_wp WP301990 8.90000 160.400 125 4 8.70000 160.600 5 90 935 9 125 125 9 225 225 0 8.90000 160.600 5 97 935 8.60000 160.600 T 75 955 2 285
1990319N07197 1990 115 WP MM OWEN 1990-11-24 03:00:00 TS 8.81938 160.399 main 1645 1639 PPPP__________ WP301990 8.90750 160.257 125 4 8.78500 160.408 5 90 937 9 125 125 9 225 225 8.95001 160.473 5 97 935 8.63500 160.458 T 67 960 3 287
1990319N07197 1990 115 WP MM OWEN 1990-11-24 06:00:00 TS 8.87500 160.225 90 940 tokyo main 1642 1636 OOOO__________ jtwc_wp WP301990 8.90000 160.100 125 4 8.90000 160.200 5 90 940 9 125 125 9 225 225 0 9.00000 160.300 5 97 935 8.70000 160.300 STS 60 965 3 288
1990319N07197 1990 115 WP MM OWEN 1990-11-24 09:00:00 TS 8.92499 160.062 main 1636 1630 PPPP__________ WP301990 8.89998 159.958 122 4 9.00749 160.000 5 85 945 9 100 100 9 200 200 8.99250 160.142 5 92 940 8.79999 160.150 STS 57 967 3 287
1990319N07197 1990 115 WP MM OWEN 1990-11-24 12:00:00 TS 8.97500 159.900 80 950 tokyo main 1633 1627 OOOO__________ jtwc_wp WP301990 8.90000 159.800 120 4 9.10000 159.800 5 80 950 9 75 75 9 175 175 0 9.00000 160.000 5 87 945 8.90000 160.000 STS 55 970 3 289
1990319N07197 1990 115 WP MM OWEN 1990-11-24 15:00:00 TS 9.02869 159.764 main 1627 1621 PPPP__________ WP301990 8.90000 159.607 112 3 9.16496 159.615 5 77 955 9 75 75 9 187 187 9.09237 159.952 5 87 945 8.95744 159.880 STS 52 972 3 287
1990319N07197 1990 115 WP MM OWEN 1990-11-24 18:00:00 TS 9.07500 159.575 75 960 tokyo main 1625 1608 OOOO__________ jtwc_wp WP301990 8.90000 159.400 105 3 9.20000 159.400 5 75 960 9 75 75 9 200 200 0 9.20000 159.800 5 87 945 9.00000 159.700 STS 50 975 5 280
1990319N07197 1990 115 WP MM OWEN 1990-11-24 21:00:00 TS 9.11129 159.264 main 1608 1585 PPPP__________ WP301990 8.89996 159.215 105 3 9.21501 159.115 5 72 962 9 62 62 9 200 200 9.28020 159.338 5 82 952 9.05001 159.387 STS 52 972 7 274
1990319N07197 1990 115 WP MM OWEN 1990-11-25 00:00:00 TS 9.12500 158.900 70 965 tokyo main 1585 1568 OOOO__________ jtwc_wp WP301990 8.90000 159.000 105 3 9.20000 158.800 5 70 965 9 50 50 9 200 200 0 9.30000 158.800 4 77 960 9.10000 159.000 STS 55 970 7 270
1990319N07197 1990 115 WP MM OWEN 1990-11-25 03:00:00 TS 9.10933 158.564 main 1568 1546 PPPP__________ WP301990 8.90744 158.738 105 3 9.15748 158.500 5 70 965 9 50 50 9 200 200 9.21491 158.420 4 77 962 9.15750 158.600 STS 55 970 7 266
1990319N07197 1990 115 WP MM OWEN 1990-11-25 06:00:00 TS 9.07500 158.225 70 965 tokyo main 1546 1520 OOOO__________ jtwc_wp WP301990 8.90000 158.400 105 3 9.10000 158.200 5 70 965 9 50 50 9 200 200 0 9.10000 158.100 4 77 965 9.20000 158.200 STS 55 970 7 264
1990319N07197 1990 115 WP MM OWEN 1990-11-25 09:00:00 TS 9.04311 157.873 main 1520 1500 PPPP__________ WP301990 8.85754 157.965 100 3 9.05748 157.900 5 70 965 9 50 50 9 200 200 9.04246 157.793 4 77 965 9.21496 157.835 STS 57 967 7 264
1990319N07197 1990 115 WP MM OWEN 1990-11-25 12:00:00 TS 9.00000 157.525 70 965 tokyo main 1500 1485 OOOO__________ jtwc_wp WP301990 8.80000 157.500 95 2 9.00000 157.600 5 70 965 9 50 50 9 200 200 0 9.00000 157.500 4 77 965 9.20000 157.500 STS 60 965 7 262
1990319N07197 1990 115 WP MM OWEN 1990-11-25 15:00:00 TS 8.94686 157.185 main 1475 1460 PPPP__________ WP301990 8.74999 157.070 92 2 8.89999 157.292 5 70 965 9 50 50 9 200 200 8.96501 157.185 4 77 965 9.17246 157.193 STS 60 965 7 259
1990319N07197 1990 115 WP MM OWEN 1990-11-25 18:00:00 TS 8.87500 156.875 70 965 tokyo main 1460 1435 OOOO__________ jtwc_wp WP301990 8.70000 156.700 90 2 8.80000 157.000 5 70 965 9 50 50 9 200 200 0 8.90000 156.900 4 77 965 9.10000 156.900 STS 60 965 6 253
1990319N07197 1990 115 WP MM OWEN 1990-11-25 21:00:00 TS 8.77868 156.627 main 1435 1415 PPPP__________ WP301990 8.64993 156.428 90 2 8.74991 156.765 5 70 962 9 50 50 9 200 200 8.74990 156.715 4 77 962 8.96498 156.600 STS 60 965 5 248
1990319N07197 1990 115 WP MM OWEN 1990-11-26 00:00:00 TS 8.67500 156.375 70 960 tokyo main 1415 1391 OOOO__________ jtwc_wp WP301990 8.60000 156.200 90 2 8.70000 156.500 5 70 960 9 50 50 9 200 200 0 8.60000 156.500 4 77 960 8.80000 156.300 STS 60 965 6 251
1990319N07197 1990 115 WP MM OWEN 1990-11-26 03:00:00 TS 8.58188 156.053 main 1391 1363 PPPP__________ WP301990 8.54995 155.965 92 2 8.60004 156.115 5 72 957 9 55 55 9 212 212 8.53506 156.123 4 77 960 8.64246 156.008 STS 65 962 7 255
1990319N07197 1990 115 WP MM OWEN 1990-11-26 06:00:00 TS 8.50000 155.700 75 955 tokyo main 1363 1340 OOOO__________ jtwc_wp WP301990 8.50000 155.700 95 2 8.50000 155.700 5 75 955 9 60 60 9 225 225 0 8.50000 155.700 4 77 960 8.50000 155.700 T 70 960 7 258
1990319N07197 1990 115 WP MM OWEN 1990-11-26 09:00:00 TS 8.43370 155.359 main 1340 1324 PPPP__________ WP301990 8.44998 155.373 100 3 8.44243 155.350 5 77 952 9 60 60 9 225 225 8.45743 155.350 4 77 957 8.38497 155.365 T 75 955 7 260
1990319N07197 1990 115 WP MM OWEN 1990-11-26 12:00:00 TS 8.37500 155.000 80 950 tokyo main 1324 1299 OOOO__________ jtwc_wp WP301990 8.40000 155.000 105 3 8.40000 155.000 5 80 950 9 60 60 9 225 225 0 8.40000 155.000 4 77 955 8.30000 155.000 T 80 950 7 260
1990319N07197 1990 115 WP MM OWEN 1990-11-26 15:00:00 TS 8.30121 154.615 main 1299 1285 PPPP__________ WP301990 8.34993 154.623 110 3 8.34248 154.607 5 82 945 9 67 67 9 237 237 8.27748 154.607 4 77 955 8.23493 154.623 T 90 940 8 261
1990319N07197 1990 115 WP MM OWEN 1990-11-26 18:00:00 TS 8.25000 154.200 85 940 tokyo main 1285 1266 OOOO__________ jtwc_wp WP301990 8.30000 154.200 115 4 8.30000 154.200 5 85 940 9 75 75 9 250 250 0 8.20000 154.200 4 77 955 8.20000 154.200 SuperT 100 930 8 267
1990319N07197 1990 115 WP MM OWEN 1990-11-26 21:00:00 TS 8.25300 153.784 main 1273 1261 PPPP__________ WP301990 8.24243 153.730 122 4 8.29232 153.838 5 87 935 9 75 75 9 300 225 8.28482 153.838 4 82 952 8.19243 153.730 SuperT 105 925 9 272
1990319N07197 1990 115 WP MM OWEN 1990-11-27 00:00:00 TS 8.27500 153.300 90 930 tokyo main 1261 1248 OOOO__________ jtwc_wp WP301990 8.20000 153.200 130 4 8.30000 153.400 5 90 930 9 75 75 8 350 200 0 8.40000 153.400 5 87 950 8.20000 153.200 SuperT 110 920 11 271
1990319N07197 1990 115 WP MM OWEN 1990-11-27 03:00:00 TS 8.28062 152.705 main 1248 1239 PPPP__________ WP301990 8.19244 152.623 135 4 8.30005 152.787 5 92 927 9 75 75 8 350 200 8.43005 152.788 5 92 947 8.19994 152.622 SuperT 110 920 12 270
1990319N07197 1990 115 WP MM OWEN 1990-11-27 06:00:00 TS 8.27500 152.050 95 925 tokyo main 1239 1233 OOOO__________ jtwc_wp WP301990 8.20000 152.000 140 5 8.30000 152.100 5 95 925 9 75 75 8 350 200 0 8.40000 152.100 5 97 945 8.20000 152.000 SuperT 110 920 13 269
1990319N07197 1990 115 WP MM OWEN 1990-11-27 09:00:00 TS 8.26486 151.413 main 1233 1214 PPPP__________ WP301990 8.21493 151.358 140 5 8.31486 151.458 5 95 927 9 75 75 8 325 250 8.31478 151.472 5 101 937 8.21489 151.365 SuperT 105 925 13 268
1990319N07197 1990 115 WP MM OWEN 1990-11-27 12:00:00 TS 8.22500 150.750 95 930 tokyo main 1214 1181 OOOO__________ jtwc_wp WP301990 8.20000 150.700 140 5 8.30000 150.800 5 95 930 9 75 75 9 300 300 0 8.20000 150.800 6 106 930 8.20000 150.700 SuperT 100 930 14 265
1990319N07197 1990 115 WP MM OWEN 1990-11-27 15:00:00 TS 8.13811 150.036 main 1178 1153 PPPP__________ WP301990 8.12240 150.050 137 5 8.22242 150.107 5 92 930 9 75 75 9 300 300 8.10013 149.993 6 106 930 8.10749 149.992 SuperT 95 935 14 262
1990319N07197 1990 115 WP MM OWEN 1990-11-27 18:00:00 TS 8.02500 149.325 90 930 tokyo main 1151 1129 OOOO__________ jtwc_wp WP301990 8.00000 149.400 135 4 8.10000 149.400 5 90 930 9 75 75 9 300 300 0 8.00000 149.200 6 106 930 8.00000 149.300 ST 90 940 14 260
1990319N07197 1990 115 WP MM OWEN 1990-11-27 21:00:00 TS 7.90673 148.674 main 1129 1112 PPPP__________ WP301990 7.84993 148.742 132 4 7.94242 148.692 5 90 932 9 75 75 9 300 300 7.89224 148.578 6 106 930 7.94235 148.685 ST 90 940 13 260
1990319N07197 1990 115 WP MM OWEN 1990-11-28 00:00:00 TS 7.80000 148.050 90 935 tokyo main 1112 1098 OOOO__________ jtwc_wp WP301990 7.70000 148.100 130 4 7.80000 148.000 5 90 935 9 75 75 9 300 300 0 7.80000 148.000 6 106 930 7.90000 148.100 ST 90 940 13 262
1990319N07197 1990 115 WP MM OWEN 1990-11-28 03:00:00 TS 7.73181 147.414 main 1098 1098 PPPP__________ WP301990 7.58492 147.485 127 4 7.74993 147.328 5 87 937 9 75 75 9 300 300 7.75753 147.335 6 106 930 7.83488 147.507 ST 85 945 12 264
1990319N07197 1990 115 WP MM OWEN 1990-11-28 06:00:00 TS 7.67500 146.800 85 940 tokyo main 1098 1086 OOOO__________ jtwc_wp WP301990 7.50000 146.900 125 4 7.70000 146.700 5 85 940 9 75 75 9 300 300 0 7.70000 146.700 6 106 930 7.80000 146.900 T 80 950 12 262
1990319N07197 1990 115 WP MM OWEN 1990-11-28 09:00:00 TS 7.57176 146.232 main 1087 1077 PPPP__________ WP301990 7.41238 146.350 120 4 7.51987 146.135 5 85 940 9 75 75 9 300 300 7.51981 146.192 6 101 935 7.83497 146.250 T 77 952 11 262
1990319N07197 1990 115 WP MM OWEN 1990-11-28 12:00:00 TS 7.52500 145.675 85 940 tokyo main 1080 1080 OOOO__________ jtwc_wp WP301990 7.40000 145.800 115 4 7.40000 145.600 5 85 940 9 75 75 9 300 300 0 7.40000 145.700 5 97 940 7.90000 145.600 T 75 955 11 271
1990319N07197 1990 115 WP MM OWEN 1990-11-28 15:00:00 TS 7.59932 145.089 main 1099 1099 PPPP__________ WP301990 7.48995 145.207 115 4 7.48993 145.050 5 85 940 9 75 75 9 300 300 7.48251 145.108 5 97 940 7.93488 144.992 T 72 957 12 282
1990319N07197 1990 115 WP MM OWEN 1990-11-28 18:00:00 TS 7.77500 144.500 85 940 tokyo main 1133 1133 OOOO__________ jtwc_wp WP301990 7.70000 144.600 115 4 7.70000 144.500 5 85 940 9 75 75 9 300 300 0 7.70000 144.500 5 97 940 8.00000 144.400 T 70 960 12 290
1990319N07197 1990 115 WP MM OWEN 1990-11-28 21:00:00 TS 8.00739 143.927 main 1170 1170 PPPP__________ WP301990 8.02748 143.985 112 3 7.91251 143.927 5 85 942 9 75 75 9 300 300 7.96965 143.995 5 97 940 8.11991 143.800 T 67 962 13 295
1990319N07197 1990 115 WP MM OWEN 1990-11-29 00:00:00 TS 8.30000 143.350 85 945 tokyo main 1221 1221 OOOO__________ jtwc_wp WP301990 8.40000 143.400 110 3 8.20000 143.400 5 85 945 9 75 75 9 300 300 0 8.30000 143.400 5 97 940 8.30000 143.200 T 65 965 13 297
1990319N07197 1990 115 WP MM OWEN 1990-11-29 03:00:00 TS 8.62132 142.728 main 1247 1247 PPPP__________ WP301990 8.71490 142.877 102 3 8.59240 142.970 5 82 947 9 75 75 9 300 300 8.65793 142.500 5 97 940 8.52006 142.563 T 62 967 14 299
1990319N07197 1990 115 WP MM OWEN 1990-11-29 06:00:00 TS 8.95000 142.150 80 950 tokyo main 1267 1260 OOOO__________ jtwc_wp WP301990 9.00000 142.400 95 2 9.00000 142.600 5 80 950 9 75 75 9 300 300 0 9.00000 141.600 5 97 940 8.80000 142.000 STS 60 970 12 301
1990319N07197 1990 115 WP MM OWEN 1990-11-29 09:00:00 TS 9.23927 141.676 main 1270 1270 PPPP__________ WP301990 9.22753 141.905 90 2 9.30746 142.235 5 77 952 9 75 75 9 300 300 9.28723 140.967 5 97 940 9.13487 141.597 STS 60 970 10 304
1990319N07197 1990 115 WP MM OWEN 1990-11-29 12:00:00 TS 9.52500 141.300 75 955 tokyo main 1290 1290 OOOO__________ jtwc_wp WP301990 9.50000 141.500 85 2 9.60000 141.900 5 75 955 9 75 75 9 300 300 0 9.50000 140.500 5 97 940 9.50000 141.300 STS 60 970 9 311
1990319N07197 1990 115 WP MM OWEN 1990-11-29 15:00:00 TS 9.82806 140.989 main 1314 1314 PPPP__________ WP301990 9.94236 141.277 80 1 9.93497 141.585 5 75 957 9 75 75 9 300 300 9.59245 140.067 5 92 945 9.84246 141.027 STS 57 972 8 319
1990319N07197 1990 115 WP MM OWEN 1990-11-29 18:00:00 TS 10.1500 140.750 75 960 tokyo main 1346 1342 OOOO__________ jtwc_wp WP301990 10.4000 141.100 75 1 10.3000 141.300 5 75 960 9 75 75 9 300 300 0 9.70000 139.800 5 87 950 10.2000 140.800 STS 55 975 8 326
1990319N07197 1990 115 WP MM OWEN 1990-11-29 21:00:00 TS 10.4794 140.544 main 1364 1364 PPPP__________ WP301990 10.7076 140.785 70 1 10.6924 141.065 5 70 965 9 75 75 9 250 250 9.92495 139.740 5 82 955 10.5925 140.585 STS 52 977 8 332
1990319N07197 1990 115 WP MM OWEN 1990-11-30 00:00:00 TS 10.8400 140.373 65 970 tokyo main 1391 1391 OOOO__________ jtwc_wp WP301990 11.0000 140.500 65 1 11.1000 140.800 5 65 970 9 75 75 9 200 200 0 10.3000 139.800 4 77 960 11.0000 140.400 STS 50 980 9 338
1990319N07197 1990 115 WP MM OWEN 1990-11-30 03:00:00 TS 11.2797 140.210 main 1436 1436 PPPP__________ WP301990 11.3849 140.370 60 0 11.5151 140.400 5 60 975 9 62 62 9 200 200 10.8775 139.842 4 67 967 11.4025 140.243 STS 42 985 10 342
1990319N07197 1990 115 WP MM OWEN 1990-11-30 06:00:00 TS 11.7385 140.069 55 980 tokyo main 1475 1475 OOOO__________ jtwc_wp WP301990 11.8000 140.300 55 0 11.9000 140.000 4 55 980 9 50 50 9 200 200 0 11.5000 139.900 3 58 975 11.8000 140.100 TS 35 990 9 346
1990319N07197 1990 115 WP MM OWEN 1990-11-30 09:00:00 TS 12.1291 139.996 main 1514 1514 PPP___________ WP301990 12.2074 140.245 50 0 12.2149 139.727 4 50 985 9 9 175 175 11.9649 140.017 3 53 980 TS 8 346
1990319N07197 1990 115 WP MM OWEN 1990-11-30 12:00:00 TS 12.5000 139.867 45 990 tokyo main 1541 1515 OOO___________ jtwc_wp WP301990 12.6000 140.100 45 0 12.5000 139.500 3 45 990 0 9 150 150 0 12.4000 140.000 3 48 985 9 331
1990319N07197 1990 115 WP MM OWEN 1990-11-30 15:00:00 TS 12.9159 139.547 main 1506 1478 PPP___________ WP301990 12.9801 139.738 40 0 12.8150 139.250 3 42 993 0 9 137 137 12.9527 139.653 3 48 985 10 318
1990319N07197 1990 115 WP MM OWEN 1990-11-30 18:00:00 TS 13.2667 139.167 40 996 tokyo main 1479 1449 OOO___________ jtwc_wp WP301990 13.3000 139.300 35 0 13.1000 139.000 3 40 996 0 9 125 125 0 13.4000 139.200 3 48 985 9 310
1990319N07197 1990 115 WP MM OWEN 1990-11-30 21:00:00 TS 13.4708 138.861 main 1451 1421 PPP___________ WP301990 13.5299 138.942 35 0 13.3224 138.757 3 37 997 0 9 112 112 13.5599 138.885 3 43 987 7 300
1990319N07197 1990 115 WP MM OWEN 1990-12-01 00:00:00 TS 13.6000 138.567 35 998 tokyo main 1421 1391 OOO___________ jtwc_wp WP301990 13.7000 138.600 35 0 13.5000 138.500 3 35 998 0 9 100 100 0 13.6000 138.600 2 38 990 6 294
1990319N07197 1990 115 WP MM OWEN 1990-12-01 03:00:00 TS 13.7383 138.255 main 1391 1362 PPP___________ WP301990 13.8649 138.250 35 0 13.6650 138.207 3 999 0 9 13.6849 138.307 2 38 992 7 293
1990319N07197 1990 115 WP MM OWEN 1990-12-01 06:00:00 TS 13.8667 137.933 1000 tokyo main 1353 1324 OOO___________ jtwc_wp WP301990 14.0000 137.900 35 0 13.8000 137.900 2 1000 0 0 0 13.8000 138.000 2 38 995 7 294
1990319N07197 1990 115 WP MM OWEN 1990-12-01 09:00:00 TS 14.0150 137.603 main 1324 1295 PPP___________ WP301990 14.1224 137.550 35 0 13.9149 137.607 2 1001 0 0 14.0075 137.650 2 33 996 7 292
1990319N07197 1990 115 WP MM OWEN 1990-12-01 12:00:00 TS 14.1333 137.267 1002 tokyo main 1295 1265 OOO___________ jtwc_wp WP301990 14.2000 137.200 35 0 14.0000 137.300 2 1002 0 0 0 14.2000 137.300 1 29 998 7 285
1990319N07197 1990 115 WP MM OWEN 1990-12-01 15:00:00 TS 14.1841 136.938 main 1254 1222 PPP___________ WP301990 14.2149 136.850 35 0 14.0575 136.957 2 1002 0 0 14.2799 137.007 1 29 998 7 276
1990319N07197 1990 115 WP MM OWEN 1990-12-01 18:00:00 TS 14.2000 136.600 1002 tokyo main 1222 1190 OOO___________ jtwc_wp WP301990 14.2000 136.500 35 0 14.1000 136.600 2 1002 0 0 0 14.3000 136.700 1 29 998 7 273
1990319N07197 1990 115 WP MM OWEN 1990-12-01 21:00:00 TS 14.2216 136.253 main 1190 1148 PPP___________ WP301990 14.2073 136.173 35 0 14.1499 136.265 2 1002 0 0 14.3075 136.322 1 29 998 7 273
1990319N07197 1990 115 WP MM OWEN 1990-12-02 00:00:00 TS 14.2333 135.867 1002 tokyo main 1148 1108 OOO___________ jtwc_wp WP301990 14.2000 135.800 35 0 14.2000 135.900 2 1002 0 0 0 14.3000 135.900 1 29 998 8 272
1990319N07197 1990 115 WP MM OWEN 1990-12-02 03:00:00 TS 14.2557 135.428 main 1097 1053 PPP___________ WP301990 14.1800 135.330 32 -1 14.2873 135.488 2 1002 0 0 14.2999 135.465 1 29 998 9 270
1990319N07197 1990 115 WP MM OWEN 1990-12-02 06:00:00 TS 14.2333 134.933 1002 tokyo main 1042 987 OOO___________ jtwc_wp WP301990 14.1000 134.800 30 -1 14.3000 135.000 2 1002 0 0 0 14.3000 135.000 1 29 998 10 263
1990319N07197 1990 115 WP MM OWEN 1990-12-02 09:00:00 TS 14.1424 134.403 main 987 932 PPP___________ WP301990 13.9374 134.258 30 -1 14.1525 134.422 2 1003 0 0 14.3373 134.530 1 29 999 11 256
1990319N07197 1990 115 WP MM OWEN 1990-12-02 12:00:00 TS 13.9667 133.833 1004 tokyo main 921 862 OOO___________ jtwc_wp WP301990 13.7000 133.700 30 -1 13.9000 133.800 2 1004 0 0 0 14.3000 134.000 1 29 1000 12 250
1990319N07197 1990 115 WP MM OWEN 1990-12-02 15:00:00 TS 13.7334 133.218 main 851 792 PPP___________ WP301990 13.4225 133.128 30 -1 13.6301 133.162 2 1004 0 0 14.1475 133.365 1 29 1000 13 244
1990319N07197 1990 115 WP MM OWEN 1990-12-02 18:00:00 TS 13.4000 132.633 1004 tokyo main 781 731 OOO___________ jtwc_wp WP301990 13.1000 132.600 30 -1 13.3000 132.600 2 1004 0 0 0 13.8000 132.700 1 29 1000 13 234
1990319N07197 1990 115 WP MM OWEN 1990-12-02 21:00:00 TS 12.9682 132.141 main 721 674 PPP___________ WP301990 12.7499 132.170 30 -1 12.9298 132.213 2 1005 0 0 13.2251 132.040 1 29 1000 13 223
1990319N07197 1990 115 WP MM OWEN 1990-12-03 00:00:00 TS 12.4667 131.733 1006 tokyo main 664 618 OOO___________ jtwc_wp WP301990 12.4000 131.800 30 -1 12.5000 131.900 2 1006 0 0 0 12.5000 131.500 1 29 1000 13 215
1990319N07197 1990 115 WP MM OWEN 1990-12-03 03:00:00 TS 11.9174 131.377 main 618 581 PPP___________ WP301990 12.1075 131.435 30 -1 11.9925 131.535 2 1006 0 0 11.6524 131.160 1 29 1001 12 211
1990319N07197 1990 115 WP MM OWEN 1990-12-03 06:00:00 TS 11.4333 131.100 1006 tokyo main 580 557 OOO___________ jtwc_wp WP301990 11.8000 131.100 30 -1 11.5000 131.200 2 1006 0 0 0 11.0000 131.000 1 29 1002 9 210
1990319N07197 1990 115 WP MM OWEN 1990-12-03 09:00:00 TS 11.1707 130.932 main 557 528 PPP___________ WP301990 11.4149 130.808 30 -1 11.1349 130.950 2 1006 0 0 10.9623 131.038 1 29 1002 6 217
1990319N07197 1990 115 WP MM OWEN 1990-12-03 12:00:00 TS 10.9273 130.709 1006 tokyo main 528 472 OOO___________ jtwc_wp WP301990 11.0000 130.500 30 -1 10.8000 130.700 2 1006 0 0 0 11.0000 131.000 1 29 1002 9 222
1990319N07197 1990 115 WP MM OWEN 1990-12-03 15:00:00 TS 10.5006 130.314 main 472 418 PPP___________ WP301990 10.5849 130.130 27 -1 10.3476 130.350 2 1006 0 0 10.6379 130.612 1 26 1003 12 226
1990319N07197 1990 115 WP MM OWEN 1990-12-03 18:00:00 TS 10.1000 129.850 1006 tokyo main 418 359 OOO___________ jtwc_wp WP301990 10.2000 129.700 25 -1 10.0000 130.000 2 1006 0 0 0 10.0000 130.000 1 23 1004 11 237
1990319N07197 1990 115 WP MM OWEN 1990-12-03 21:00:00 TS 9.91071 129.405 main 359 301 PP____________ WP301990 9.90733 129.245 25 -1 9.91748 129.725 2 1007 0 0 1 11 247
1990319N07197 1990 115 WP MM OWEN 1990-12-04 00:00:00 TS 9.68000 128.860 1008 tokyo main 301 202 OO____________ jtwc_wp WP301990 9.60000 128.700 25 -1 10.0000 129.500 2 1008 0 0 0 16 242
1990319N07197 1990 115 WP MM OWEN 1990-12-04 03:00:00 NR 9.18006 128.022 main 192 108 P_____________ WP301990 9.18006 128.022 25 -1 2 0 0 18 238
1990319N07197 1990 115 WP MM OWEN 1990-12-04 06:00:00 NR 8.70000 127.300 main 108 33 O_____________ jtwc_wp WP301990 8.70000 127.300 25 -1 17 234
1990319N07197 1990 115 WP MM OWEN 1990-12-04 09:00:00 NR 8.19986 126.643 main 24 0 P_____________ WP301990 8.19986 126.643 22 -1 16 232
1990319N07197 1990 115 WP MM OWEN 1990-12-04 12:00:00 NR 7.70000 126.000 main 0 0 O_____________ jtwc_wp WP301990 7.70000 126.000 20 -1 16 233
1990319N07197 1990 115 WP MM OWEN 1990-12-04 15:00:00 NR 7.24238 125.358 main 0 0 P_____________ WP301990 7.24238 125.358 20 -1 16 235
1990319N07197 1990 115 WP MM OWEN 1990-12-04 18:00:00 NR 6.80000 124.700 main 0 0 O_____________ jtwc_wp WP301990 6.80000 124.700 20 -1 16 236
1990319N07197 1990 115 WP MM OWEN 1990-12-04 21:00:00 NR 6.35272 124.010 main 11 11 P_____________ WP301990 6.35272 124.010 20 -1 17 237
1990319N07197 1990 115 WP MM OWEN 1990-12-05 00:00:00 NR 5.90000 123.300 main 104 O_____________ jtwc_wp WP301990 5.90000 123.300 20 -1 17 237

IBTrACS Databaseについて

本データベースは、米国NOAAが公開する1842年以降の世界の熱帯低気圧のベストトラックデータアーカイブInternational Best Track Archive for Climate Stewardship (IBTrACS)を、ウェブで閲覧しやすい形式に変換したものです。

最終更新日:2021-12-01